Time;durP1;ratioP1;P1;durP2;ratioP2;P2;SDS_P1;SDS_P2;PMS_P1;PMS_P2;Temp;Humidity;BMP_temperature;BMP_pressure;BME280_temperature;BME280_humidity;BME280_pressure;Samples;Min_cycle;Max_cycle;Signal;HPM_P1;HPM_P2
2024/01/20 00:00:19;;;;;;;10.35;5.63;;;;;;;1.97;98.45;99092.31;5036925;28;20154;-73
2024/01/20 00:02:49;;;;;;;7.97;5.13;;;;;;;2.10;97.97;99093.34;5060361;28;20522;-73
2024/01/20 00:05:19;;;;;;;9.52;5.00;;;;;;;2.00;99.74;99100.69;5071292;28;20059;-70
2024/01/20 00:07:45;;;;;;;9.13;5.28;;;;;;;1.70;98.99;99039.81;5072359;28;20082;-72
2024/01/20 00:10:11;;;;;;;8.43;4.88;;;;;;;2.11;98.69;99100.94;5057660;28;20481;-73
2024/01/20 00:12:43;;;;;;;9.55;5.25;;;;;;;2.06;97.96;99092.69;5059618;28;20028;-72
2024/01/20 00:15:11;;;;;;;7.90;4.63;;;;;;;2.04;97.48;99107.31;5054412;28;20044;-72
2024/01/20 00:17:42;;;;;;;9.88;4.95;;;;;;;2.02;97.74;99111.69;5031043;28;20032;-73
2024/01/20 00:20:08;;;;;;;8.43;4.68;;;;;;;1.94;98.17;99108.69;5043643;28;20748;-73
2024/01/20 00:22:34;;;;;;;8.77;4.50;;;;;;;1.87;98.57;99113.31;5049166;28;20020;-73
2024/01/20 00:25:02;;;;;;;10.07;5.07;;;;;;;1.66;97.77;99076.75;5042016;28;20031;-73
2024/01/20 00:27:28;;;;;;;9.68;5.15;;;;;;;1.92;97.65;99121.59;5066445;28;20115;-71
2024/01/20 00:29:53;;;;;;;8.40;4.65;;;;;;;1.61;98.22;99072.78;5065180;28;20028;-72
2024/01/20 00:32:21;;;;;;;8.77;5.13;;;;;;;1.85;98.42;99130.50;5038854;28;20067;-71
2024/01/20 00:34:46;;;;;;;7.03;4.65;;;;;;;1.40;98.60;99078.03;5031708;28;21333;-72
2024/01/20 00:37:12;;;;;;;10.30;4.90;;;;;;;1.80;98.53;99132.47;5056896;28;20024;-72
2024/01/20 00:39:42;;;;;;;8.57;5.00;;;;;;;1.44;98.34;99086.41;5029846;28;20059;-71
2024/01/20 00:42:10;;;;;;;9.82;4.82;;;;;;;1.76;98.60;99122.44;5041659;28;20028;-72
2024/01/20 00:44:38;;;;;;;7.57;4.90;;;;;;;1.80;99.18;99124.78;5067881;28;20032;-72
2024/01/20 00:47:03;;;;;;;8.00;4.93;;;;;;;1.82;99.51;99128.09;5052627;28;20024;-71
2024/01/20 00:49:28;;;;;;;10.75;5.28;;;;;;;1.78;100.00;99125.75;5051519;28;20868;-73
2024/01/20 00:51:54;;;;;;;7.85;5.18;;;;;;;1.80;100.00;99126.50;5050383;28;20448;-71
2024/01/20 00:54:20;;;;;;;10.93;5.32;;;;;;;1.56;100.00;99075.56;5060517;28;20082;-72
2024/01/20 00:56:48;;;;;;;8.48;5.57;;;;;;;1.97;100.00;99121.38;5047950;28;20827;-72
2024/01/20 00:59:15;;;;;;;8.45;5.32;;;;;;;1.98;100.00;99128.16;5045351;28;20139;-73
2024/01/20 01:01:41;;;;;;;10.43;5.18;;;;;;;2.01;100.00;99140.81;5033681;28;20024;-73
2024/01/20 01:04:08;;;;;;;10.02;5.72;;;;;;;1.62;100.00;99085.50;5034110;28;20054;-72
2024/01/20 01:06:34;;;;;;;8.38;5.55;;;;;;;1.51;100.00;99059.56;5053122;28;20508;-73
2024/01/20 01:08:59;;;;;;;7.57;4.93;;;;;;;1.91;100.00;99129.38;5051569;28;20039;-72
2024/01/20 01:11:24;;;;;;;7.53;4.80;;;;;;;2.03;100.00;99140.75;5039108;28;20080;-69
2024/01/20 01:13:52;;;;;;;7.60;4.40;;;;;;;1.91;100.00;99143.00;5043897;28;20108;-71
2024/01/20 01:16:17;;;;;;;7.18;4.57;;;;;;;1.88;100.00;99145.75;5064347;27;20029;-72
2024/01/20 01:18:43;;;;;;;7.10;4.95;;;;;;;1.80;100.00;99152.97;5063381;28;20306;-73
2024/01/20 01:21:08;;;;;;;7.82;3.92;;;;;;;1.49;100.00;99092.13;5074158;28;20026;-73
2024/01/20 01:23:34;;;;;;;7.75;4.47;;;;;;;1.84;99.72;99154.47;5075510;28;20410;-73
2024/01/20 01:25:59;;;;;;;7.35;4.32;;;;;;;1.89;97.60;99157.66;5091291;28;20374;-73
2024/01/20 01:28:27;;;;;;;6.50;4.18;;;;;;;1.69;97.20;99156.06;5057703;28;20034;-72
2024/01/20 01:30:55;;;;;;;8.27;4.35;;;;;;;1.87;95.87;99158.63;5092392;27;20027;-73
2024/01/20 01:33:23;;;;;;;8.35;4.57;;;;;;;1.49;95.62;99115.22;5072742;28;20032;-71
2024/01/20 01:35:48;;;;;;;6.35;3.75;;;;;;;1.43;94.83;99100.97;5077682;28;20273;-70
2024/01/20 01:38:14;;;;;;;10.00;4.57;;;;;;;1.80;94.95;99159.84;5070590;28;20860;-74
2024/01/20 01:40:39;;;;;;;6.65;4.07;;;;;;;1.65;97.33;99167.38;5075894;28;20510;-73
2024/01/20 01:43:08;;;;;;;8.50;4.45;;;;;;;1.59;98.03;99161.72;5078023;28;20031;-72
2024/01/20 01:45:35;;;;;;;7.35;4.00;;;;;;;1.63;97.64;99153.81;5057809;28;20040;-71
2024/01/20 01:48:01;;;;;;;7.53;4.30;;;;;;;1.66;97.91;99163.94;5090831;28;20031;-73
2024/01/20 01:50:28;;;;;;;8.35;4.60;;;;;;;1.73;97.19;99162.72;5055804;28;20031;-74
2024/01/20 01:52:57;;;;;;;6.25;3.95;;;;;;;1.61;96.89;99142.00;5059547;28;20146;-70
2024/01/20 01:55:23;;;;;;;5.95;3.25;;;;;;;1.60;94.55;99153.13;5054799;28;20482;-72
2024/01/20 01:57:54;;;;;;;7.97;4.32;;;;;;;1.64;92.96;99158.06;5069357;28;20131;-75
2024/01/20 02:00:21;;;;;;;8.60;4.03;;;;;;;1.69;92.01;99161.19;5071100;28;20071;-71
2024/01/20 02:02:47;;;;;;;6.85;3.85;;;;;;;1.72;91.48;99144.84;5088097;28;20110;-73
2024/01/20 02:05:12;;;;;;;10.18;4.28;;;;;;;1.71;90.93;99158.56;5055741;28;20026;-72
2024/01/20 02:07:39;;;;;;;7.95;3.95;;;;;;;1.68;90.46;99164.69;5072639;28;20459;-73
2024/01/20 02:10:09;;;;;;;7.13;3.78;;;;;;;1.80;89.23;99152.16;5059648;28;20028;-72
2024/01/20 02:12:36;;;;;;;7.28;3.85;;;;;;;1.71;89.55;99153.44;5072279;28;20063;-69
2024/01/20 02:15:02;;;;;;;6.78;3.78;;;;;;;1.78;89.30;99161.66;5082349;28;20047;-73
2024/01/20 02:17:27;;;;;;;7.57;4.40;;;;;;;1.41;89.84;99113.03;5061534;28;20038;-73
2024/01/20 02:19:53;;;;;;;6.28;3.85;;;;;;;1.44;89.99;99125.69;5079596;28;20108;-73
2024/01/20 02:22:18;;;;;;;7.90;4.20;;;;;;;1.27;90.84;99095.75;5055760;28;20112;-74
2024/01/20 02:24:48;;;;;;;7.20;4.38;;;;;;;1.64;91.31;99159.75;5056809;28;21282;-70
2024/01/20 02:27:15;;;;;;;8.20;4.40;;;;;;;1.59;91.85;99154.88;5072086;28;20024;-71
2024/01/20 02:29:40;;;;;;;6.57;3.70;;;;;;;1.61;91.25;99170.19;5059619;28;20132;-72
2024/01/20 02:32:06;;;;;;;6.43;3.90;;;;;;;1.51;91.17;99172.34;5093046;27;20367;-71
2024/01/20 02:34:32;;;;;;;7.35;4.18;;;;;;;1.26;90.65;99124.00;5059377;28;20038;-70
2024/01/20 02:37:02;;;;;;;6.40;3.80;;;;;;;1.59;90.46;99183.06;5063615;27;20020;-73
2024/01/20 02:39:27;;;;;;;7.15;4.15;;;;;;;1.54;89.79;99182.47;5093263;27;20028;-73
2024/01/20 02:41:55;;;;;;;7.22;3.90;;;;;;;1.57;88.87;99184.88;5063768;28;20105;-74
2024/01/20 02:44:23;;;;;;;7.63;4.50;;;;;;;1.53;89.12;99203.84;5090873;27;20642;-73
2024/01/20 02:46:48;;;;;;;8.77;4.20;;;;;;;1.54;88.15;99185.03;5075785;27;20015;-72
2024/01/20 02:49:14;;;;;;;7.55;4.40;;;;;;;1.60;87.38;99189.84;5071146;27;20043;-72
2024/01/20 02:51:39;;;;;;;10.80;4.25;;;;;;;1.50;87.93;99189.47;5072149;28;20107;-72
2024/01/20 02:54:04;;;;;;;7.85;3.85;;;;;;;1.54;88.31;99182.47;5070789;28;20100;-72
2024/01/20 02:56:30;;;;;;;6.97;3.88;;;;;;;1.59;88.12;99197.59;5060482;28;20023;-72
2024/01/20 02:58:57;;;;;;;6.47;3.85;;;;;;;1.52;88.69;99205.59;5078457;28;20031;-73
2024/01/20 03:01:23;;;;;;;6.43;3.75;;;;;;;1.46;89.41;99199.91;5078018;27;20900;-73
2024/01/20 03:03:48;;;;;;;8.75;4.32;;;;;;;1.45;90.19;99213.66;5071685;27;20458;-73
2024/01/20 03:06:14;;;;;;;7.00;3.90;;;;;;;1.42;89.73;99212.03;5058850;28;20032;-71
2024/01/20 03:08:41;;;;;;;7.03;3.80;;;;;;;1.36;88.96;99216.66;5084774;28;20036;-71
2024/01/20 03:11:07;;;;;;;6.47;3.85;;;;;;;1.36;88.35;99219.22;5081935;28;20035;-72
2024/01/20 03:13:32;;;;;;;6.97;3.67;;;;;;;1.36;88.93;99221.78;5079311;28;20434;-73
2024/01/20 03:15:58;;;;;;;8.23;4.10;;;;;;;1.22;89.43;99210.41;5084613;28;20046;-73
2024/01/20 03:18:23;;;;;;;7.70;4.22;;;;;;;1.25;88.57;99206.91;5077695;28;20027;-73
2024/01/20 03:20:51;;;;;;;8.25;4.20;;;;;;;1.38;88.50;99218.22;5082278;27;20042;-72
2024/01/20 03:23:16;;;;;;;8.73;3.75;;;;;;;1.31;87.61;99214.28;5071756;28;20511;-73
2024/01/20 03:25:42;;;;;;;6.47;3.72;;;;;;;1.44;87.58;99224.78;5063246;27;20027;-73
2024/01/20 03:28:07;;;;;;;7.38;4.13;;;;;;;1.24;88.22;99229.13;5065953;28;20034;-73
2024/01/20 03:30:33;;;;;;;6.85;3.83;;;;;;;1.29;88.52;99219.47;5078063;28;20057;-70
2024/01/20 03:33:00;;;;;;;6.45;3.70;;;;;;;1.19;87.83;99233.63;5060586;28;20035;-73
2024/01/20 03:35:26;;;;;;;6.07;3.40;;;;;;;0.87;87.09;99163.38;5063048;28;20027;-73
2024/01/20 03:37:51;;;;;;;7.10;4.00;;;;;;;1.17;85.95;99232.03;5075470;28;20024;-72
2024/01/20 03:40:16;;;;;;;5.10;2.55;;;;;;;1.01;84.54;99190.94;5060884;28;20467;-73
2024/01/20 03:42:44;;;;;;;7.03;3.95;;;;;;;1.17;84.96;99240.56;5077743;28;20024;-72
2024/01/20 03:45:09;;;;;;;6.85;3.40;;;;;;;1.11;84.99;99231.44;5077059;27;20047;-72
2024/01/20 03:47:35;;;;;;;5.68;3.03;;;;;;;1.10;84.88;99237.44;5067290;28;20016;-74
2024/01/20 03:50:03;;;;;;;7.80;3.58;;;;;;;1.08;84.97;99243.53;5053609;28;20661;-72
2024/01/20 03:52:31;;;;;;;6.85;3.03;;;;;;;1.06;84.33;99232.50;5074481;28;20058;-71
2024/01/20 03:54:59;;;;;;;7.80;3.42;;;;;;;1.10;84.98;99247.69;5064496;27;21616;-74
2024/01/20 03:57:24;;;;;;;8.25;3.45;;;;;;;1.13;84.31;99262.06;5093154;28;20199;-72
2024/01/20 03:59:49;;;;;;;6.35;3.10;;;;;;;0.76;85.46;99210.78;5079209;28;20067;-71
2024/01/20 04:02:15;;;;;;;6.60;3.50;;;;;;;0.70;84.70;99202.56;5059103;28;20027;-72
2024/01/20 04:04:40;;;;;;;5.80;3.38;;;;;;;0.69;85.51;99211.94;5080470;28;20545;-73
2024/01/20 04:07:08;;;;;;;7.63;3.40;;;;;;;1.12;85.81;99268.13;5058653;28;20035;-72
2024/01/20 04:09:33;;;;;;;9.63;4.07;;;;;;;1.01;87.00;99263.47;5064186;28;20046;-71
2024/01/20 04:11:59;;;;;;;6.90;3.55;;;;;;;0.83;86.45;99233.56;5073935;28;20711;-74
2024/01/20 04:14:24;;;;;;;10.05;3.78;;;;;;;0.99;85.85;99288.31;5079917;28;20054;-73
2024/01/20 04:16:50;;;;;;;4.30;2.10;;;;;;;0.91;85.50;99287.81;5056548;28;20548;-70
2024/01/20 04:19:15;;;;;;;5.85;2.67;;;;;;;1.02;86.52;99311.22;5100866;27;20024;-72
2024/01/20 04:21:42;;;;;;;6.30;3.35;;;;;;;0.81;87.39;99299.38;5062218;28;20826;-73
2024/01/20 04:24:10;;;;;;;7.32;3.35;;;;;;;0.74;87.78;99298.78;5073295;28;20818;-72
2024/01/20 04:26:40;;;;;;;7.18;3.38;;;;;;;0.79;89.61;99304.56;5061074;27;20035;-72
2024/01/20 04:29:05;;;;;;;6.03;3.42;;;;;;;0.85;88.95;99317.06;5057717;28;20032;-73
2024/01/20 04:31:35;;;;;;;6.97;3.30;;;;;;;0.85;87.69;99323.94;5061522;28;20110;-73
2024/01/20 04:34:01;;;;;;;6.75;3.40;;;;;;;0.85;86.74;99317.06;5072574;28;20854;-72
2024/01/20 04:36:31;;;;;;;7.18;3.60;;;;;;;0.86;85.55;99330.69;5053100;28;20116;-73
2024/01/20 04:38:57;;;;;;;6.10;3.15;;;;;;;0.74;86.13;99329.50;5083896;27;20026;-74
2024/01/20 04:41:22;;;;;;;8.02;3.55;;;;;;;0.75;87.20;99338.88;5058779;28;20711;-73
2024/01/20 04:44:16;;;;;;;6.40;2.78;;;;;;;0.76;85.78;99337.94;5074361;28;20038;-73
2024/01/20 04:46:41;;;;;;;5.45;2.50;;;;;;;0.70;85.28;99335.66;5064929;28;20031;-71
2024/01/20 04:49:07;;;;;;;6.90;3.15;;;;;;;0.70;84.85;99344.16;5076873;27;20430;-72
2024/01/20 04:51:35;;;;;;;5.80;3.20;;;;;;;0.69;85.11;99351.91;5078761;28;20023;-73
2024/01/20 04:54:03;;;;;;;6.03;3.10;;;;;;;0.75;85.60;99351.66;5057103;27;20035;-73
2024/01/20 04:56:33;;;;;;;7.35;3.40;;;;;;;0.76;85.15;99353.31;5065009;28;20097;-73
2024/01/20 04:58:58;;;;;;;6.97;3.17;;;;;;;0.79;84.68;99358.31;5089452;27;20028;-73
2024/01/20 05:01:24;;;;;;;5.47;2.70;;;;;;;0.72;84.47;99360.28;5063011;28;20081;-73
2024/01/20 05:03:49;;;;;;;6.00;2.60;;;;;;;0.80;83.59;99372.75;5077521;28;20505;-74
2024/01/20 05:06:14;;;;;;;5.32;2.95;;;;;;;0.73;82.38;99371.34;5072407;28;20023;-71
2024/01/20 05:08:42;;;;;;;4.82;2.53;;;;;;;0.37;81.27;99316.53;5077046;28;20619;-74
2024/01/20 05:11:10;;;;;;;5.60;2.80;;;;;;;0.54;80.29;99343.97;5058795;27;20027;-72
2024/01/20 05:13:40;;;;;;;4.75;2.50;;;;;;;0.76;80.10;99396.84;5062166;28;20044;-72
2024/01/20 05:16:05;;;;;;;6.32;2.78;;;;;;;0.62;79.88;99384.63;5077148;28;20717;-74
2024/01/20 05:18:33;;;;;;;6.55;3.00;;;;;;;0.75;79.96;99397.75;5077470;28;20505;-71
2024/01/20 05:20:58;;;;;;;5.63;2.80;;;;;;;0.74;79.93;99401.19;5070351;28;20034;-72
2024/01/20 05:23:26;;;;;;;6.53;3.13;;;;;;;0.36;80.08;99354.97;5061566;28;20035;-72
2024/01/20 05:25:51;;;;;;;6.45;2.80;;;;;;;0.73;80.19;99404.63;5061419;28;20059;-72
2024/01/20 05:28:16;;;;;;;6.85;2.90;;;;;;;0.62;80.73;99399.97;5057364;28;20147;-74
2024/01/20 05:30:43;;;;;;;6.35;2.75;;;;;;;0.54;80.95;99409.69;5058728;28;20038;-73
2024/01/20 05:33:08;;;;;;;6.07;2.97;;;;;;;0.71;80.30;99421.78;5059913;28;20741;-72
2024/01/20 05:35:37;;;;;;;5.75;2.67;;;;;;;0.46;80.44;99383.59;5061918;28;20036;-74
2024/01/20 05:38:05;;;;;;;5.60;2.80;;;;;;;0.73;81.12;99436.22;5056960;28;20019;-73
2024/01/20 05:40:30;;;;;;;5.38;2.80;;;;;;;0.75;80.84;99444.66;5061847;28;20119;-74
2024/01/20 05:42:56;;;;;;;5.28;2.70;;;;;;;0.69;79.66;99436.38;5070290;28;20046;-72
2024/01/20 05:45:21;;;;;;;4.90;2.60;;;;;;;0.32;79.54;99387.50;5058271;28;20035;-70
2024/01/20 05:47:49;;;;;;;5.25;2.63;;;;;;;0.64;80.00;99445.97;5076622;28;20027;-73
2024/01/20 05:50:14;;;;;;;5.82;2.42;;;;;;;0.66;79.06;99457.00;5073193;28;20027;-71
2024/01/20 05:52:40;;;;;;;5.05;2.65;;;;;;;0.72;78.74;99469.53;5072572;28;20077;-74
2024/01/20 05:55:10;;;;;;;5.40;2.80;;;;;;;0.61;79.24;99464.84;5054689;28;20035;-73
2024/01/20 05:57:38;;;;;;;7.15;2.47;;;;;;;0.76;78.71;99468.53;5062822;28;20028;-73
2024/01/20 06:00:11;;;;;;;4.82;2.20;;;;;;;0.48;77.75;99438.09;5070936;28;20096;-74
2024/01/20 06:02:37;;;;;;;7.50;3.00;;;;;;;0.73;78.35;99489.13;5077922;28;20039;-73
2024/01/20 06:05:02;;;;;;;7.55;2.53;;;;;;;0.29;78.57;99433.69;5087488;28;20034;-73
2024/01/20 06:07:28;;;;;;;5.60;2.42;;;;;;;0.60;78.67;99482.81;5080528;28;20127;-74
2024/01/20 06:09:53;;;;;;;5.10;2.50;;;;;;;0.45;79.22;99472.28;5079915;28;20478;-72
2024/01/20 06:12:21;;;;;;;5.75;2.40;;;;;;;0.49;78.26;99480.69;5051574;27;20043;-71
2024/01/20 06:14:46;;;;;;;4.93;2.53;;;;;;;0.59;77.37;99493.97;5062144;28;20048;-73
2024/01/20 06:17:12;;;;;;;4.85;2.40;;;;;;;0.53;77.67;99500.13;5058935;27;20041;-74
2024/01/20 06:19:39;;;;;;;5.53;2.55;;;;;;;0.52;76.59;99517.22;5099375;27;20656;-74
2024/01/20 06:22:05;;;;;;;5.50;2.38;;;;;;;0.45;75.67;99502.16;5072652;28;20052;-73
2024/01/20 06:24:30;;;;;;;6.18;2.70;;;;;;;0.52;76.39;99509.53;5068047;28;20102;-71
2024/01/20 06:27:00;;;;;;;7.50;2.80;;;;;;;0.49;75.99;99512.25;5075946;28;20034;-72
2024/01/20 06:29:26;;;;;;;6.25;2.60;;;;;;;0.43;75.79;99507.34;5066549;28;20055;-73
2024/01/20 06:31:53;;;;;;;5.30;2.22;;;;;;;0.43;76.05;99524.44;5080506;27;20160;-74
2024/01/20 06:34:19;;;;;;;5.45;2.50;;;;;;;0.43;75.67;99532.94;5063112;28;20023;-74
2024/01/20 06:36:47;;;;;;;5.07;2.25;;;;;;;0.33;75.79;99514.53;5059985;28;20812;-72
2024/01/20 06:39:12;;;;;;;4.50;2.13;;;;;;;0.30;76.45;99526.63;5062162;28;20400;-73
2024/01/20 06:41:37;;;;;;;6.95;2.00;;;;;;;0.23;76.95;99527.75;5081729;28;20099;-74
2024/01/20 06:44:03;;;;;;;4.88;2.20;;;;;;;0.30;77.25;99537.69;5082744;28;20032;-71
2024/01/20 06:46:31;;;;;;;5.45;2.40;;;;;;;0.23;77.09;99543.09;5059810;28;20089;-71
2024/01/20 06:48:59;;;;;;;6.30;2.63;;;;;;;0.19;76.64;99540.63;5061879;28;20088;-70
2024/01/20 06:51:27;;;;;;;6.45;2.08;;;;;;;0.24;76.27;99552.41;5081477;28;20031;-70
2024/01/20 06:54:00;;;;;;;4.75;2.25;;;;;;;0.27;75.74;99555.69;5059357;28;20023;-72
2024/01/20 06:56:28;;;;;;;5.30;2.13;;;;;;;-0.07;75.90;99521.13;5083612;28;20047;-71
2024/01/20 06:58:56;;;;;;;5.00;2.15;;;;;;;0.13;75.60;99565.63;5080286;27;20027;-73
2024/01/20 07:01:25;;;;;;;5.68;2.05;;;;;;;0.21;75.39;99565.34;5059030;28;20506;-72
2024/01/20 07:03:52;;;;;;;4.93;2.13;;;;;;;0.24;74.77;99570.31;5059269;28;20035;-75
2024/01/20 07:06:27;;;;;;;5.15;2.05;;;;;;;0.14;73.23;99559.59;5065837;28;20114;-72
2024/01/20 07:08:55;;;;;;;3.92;1.58;;;;;;;0.20;72.12;99587.50;5081614;28;20149;-72
2024/01/20 07:11:23;;;;;;;4.65;2.10;;;;;;;0.17;71.69;99585.06;5077734;28;20020;-72
2024/01/20 07:13:48;;;;;;;4.00;1.58;;;;;;;0.21;72.62;99585.78;5070913;28;20051;-74
2024/01/20 07:16:15;;;;;;;4.43;1.85;;;;;;;-0.14;71.96;99522.25;5076581;28;20112;-74
2024/01/20 07:18:40;;;;;;;5.55;2.30;;;;;;;0.15;71.25;99595.34;5076374;28;20158;-73
2024/01/20 07:21:06;;;;;;;3.63;1.50;;;;;;;0.12;71.27;99589.50;5060779;28;20038;-72
2024/01/20 07:23:32;;;;;;;3.42;1.65;;;;;;;-0.23;71.80;99532.78;5078257;28;20130;-71
2024/01/20 07:25:58;;;;;;;4.68;2.00;;;;;;;0.08;70.71;99599.00;5060150;28;20028;-72
2024/01/20 07:28:24;;;;;;;4.32;1.73;;;;;;;0.16;70.92;99612.38;5055265;28;20047;-72
2024/01/20 07:30:49;;;;;;;4.65;2.00;;;;;;;0.07;72.26;99622.09;5062558;28;20019;-74
2024/01/20 07:33:15;;;;;;;4.15;1.80;;;;;;;0.20;71.93;99633.53;5074989;28;20030;-73
2024/01/20 07:35:44;;;;;;;4.53;1.50;;;;;;;0.16;71.88;99619.19;5078051;28;21537;-71
2024/01/20 07:38:11;;;;;;;5.93;1.95;;;;;;;0.13;72.14;99634.69;5074312;28;20042;-72
2024/01/20 07:40:37;;;;;;;5.00;2.30;;;;;;;0.21;72.32;99626.72;5075117;28;20851;-72
2024/01/20 07:43:03;;;;;;;3.97;1.80;;;;;;;-0.16;71.74;99564.09;5063712;28;20043;-72
2024/01/20 07:45:28;;;;;;;4.70;1.75;;;;;;;0.21;71.57;99634.41;5076087;28;20023;-73
2024/01/20 07:47:54;;;;;;;5.00;1.88;;;;;;;0.26;71.93;99650.44;5060160;27;20039;-73
2024/01/20 07:50:19;;;;;;;4.18;2.00;;;;;;;0.26;70.93;99652.97;5076699;28;20034;-74
2024/01/20 07:52:45;;;;;;;4.88;1.95;;;;;;;0.19;72.15;99652.34;5080252;27;20492;-72
2024/01/20 07:55:10;;;;;;;4.20;1.85;;;;;;;0.24;71.86;99658.16;5055823;28;20165;-73
2024/01/20 07:57:36;;;;;;;4.00;1.70;;;;;;;0.21;71.15;99659.97;5065493;28;20596;-72
2024/01/20 08:00:05;;;;;;;6.20;1.80;;;;;;;0.21;71.52;99675.31;5072245;28;20363;-73
2024/01/20 08:02:30;;;;;;;4.95;2.13;;;;;;;0.15;71.92;99678.94;5062023;28;20044;-72
2024/01/20 08:04:56;;;;;;;4.80;2.25;;;;;;;0.06;72.35;99666.47;5056167;28;20035;-75
2024/01/20 08:07:21;;;;;;;4.50;2.00;;;;;;;0.13;72.21;99670.47;5077409;28;20038;-70
2024/01/20 08:09:46;;;;;;;4.50;1.75;;;;;;;-0.21;72.26;99613.63;5072525;28;20024;-73
2024/01/20 08:12:13;;;;;;;5.63;1.92;;;;;;;0.07;72.15;99686.03;5072927;28;20759;-72
2024/01/20 08:14:38;;;;;;;5.72;2.00;;;;;;;-0.24;71.20;99623.13;5060966;28;20052;-74
2024/01/20 08:17:06;;;;;;;5.72;2.22;;;;;;;-0.06;72.20;99658.28;5058379;27;20038;-73
2024/01/20 08:19:34;;;;;;;5.85;2.83;;;;;;;0.14;72.98;99683.19;5080451;28;20386;-72
2024/01/20 08:22:02;;;;;;;5.57;2.75;;;;;;;0.15;71.96;99697.66;5060555;28;20172;-74
2024/01/20 08:24:27;;;;;;;6.22;3.08;;;;;;;0.15;72.99;99687.44;5078738;27;20670;-73
2024/01/20 08:26:53;;;;;;;8.15;3.35;;;;;;;0.16;73.19;99686.56;5059969;28;20130;-74
2024/01/20 08:29:22;;;;;;;6.82;3.00;;;;;;;0.06;73.23;99685.19;5074356;27;20498;-73
2024/01/20 08:31:50;;;;;;;6.78;3.10;;;;;;;0.09;73.61;99709.81;5064048;28;20027;-71
2024/01/20 08:34:18;;;;;;;5.57;2.70;;;;;;;0.10;73.07;99706.38;5072708;28;20024;-74
2024/01/20 08:36:43;;;;;;;8.77;3.25;;;;;;;0.21;72.74;99711.13;5059132;28;20143;-72
2024/01/20 08:39:18;;;;;;;4.90;1.95;;;;;;;0.18;72.94;99699.28;5060885;28;20497;-74
2024/01/20 08:41:45;;;;;;;5.40;2.33;;;;;;;0.23;72.54;99719.59;5056471;28;20343;-70
2024/01/20 08:44:12;;;;;;;8.38;2.63;;;;;;;0.16;72.34;99716.41;5074307;27;20024;-74
2024/01/20 08:46:38;;;;;;;8.32;3.28;;;;;;;0.20;72.11;99733.31;5086604;27;20039;-73
2024/01/20 08:49:03;;;;;;;11.38;3.78;;;;;;;0.17;72.27;99723.19;5050381;28;20019;-71
2024/01/20 08:51:29;;;;;;;11.90;4.63;;;;;;;-0.20;72.70;99658.78;5064968;27;20039;-75
2024/01/20 08:53:54;;;;;;;10.63;4.25;;;;;;;0.17;71.64;99718.91;5045288;28;20024;-72
2024/01/20 08:56:20;;;;;;;12.70;4.40;;;;;;;0.24;71.14;99708.44;5053718;28;20478;-75
2024/01/20 08:58:45;;;;;;;17.25;6.32;;;;;;;0.23;70.64;99722.16;5061447;28;20023;-71
2024/01/20 09:01:10;;;;;;;11.55;4.68;;;;;;;0.17;70.13;99729.13;5053989;28;20509;-72
2024/01/20 09:03:41;;;;;;;15.65;5.88;;;;;;;-0.10;68.24;99668.69;5042863;28;20043;-73
2024/01/20 09:06:06;;;;;;;15.10;5.18;;;;;;;0.39;66.17;99718.19;5062421;28;20746;-74
2024/01/20 09:08:34;;;;;;;5.53;2.40;;;;;;;0.48;60.91;99729.81;5041295;28;20027;-72
2024/01/20 09:10:59;;;;;;;4.50;1.60;;;;;;;0.52;59.76;99732.19;5041026;28;20436;-73
2024/01/20 09:13:25;;;;;;;5.38;2.17;;;;;;;0.62;56.47;99719.09;5059337;28;20058;-73
2024/01/20 09:15:51;;;;;;;8.30;2.53;;;;;;;0.75;58.30;99725.44;5055921;28;20035;-72
2024/01/20 09:18:19;;;;;;;10.02;3.85;;;;;;;0.80;58.60;99728.66;5045975;28;20030;-72
2024/01/20 09:20:45;;;;;;;6.65;2.40;;;;;;;0.79;57.21;99742.38;5056205;28;20166;-72
2024/01/20 09:23:15;;;;;;;9.30;3.70;;;;;;;0.85;55.13;99743.88;5036341;28;20047;-73
2024/01/20 09:25:47;;;;;;;4.50;1.92;;;;;;;0.79;56.49;99754.34;5055170;28;20035;-74
2024/01/20 09:28:14;;;;;;;5.22;1.75;;;;;;;0.75;59.76;99751.88;5045382;28;20044;-73
2024/01/20 09:30:44;;;;;;;5.05;2.10;;;;;;;0.37;58.28;99690.06;5058531;28;20024;-73
2024/01/20 09:33:14;;;;;;;8.00;3.10;;;;;;;0.85;58.68;99759.22;5061351;28;20666;-72
2024/01/20 09:35:43;;;;;;;11.05;4.22;;;;;;;0.66;58.84;99751.38;5068759;28;20023;-72
2024/01/20 09:38:11;;;;;;;10.68;3.85;;;;;;;0.66;59.21;99759.06;5058896;28;20423;-75
2024/01/20 09:40:36;;;;;;;7.03;3.20;;;;;;;0.69;58.70;99752.06;5054340;28;20042;-73
2024/01/20 09:43:04;;;;;;;6.88;2.17;;;;;;;0.74;58.52;99749.38;5037065;28;20027;-70
2024/01/20 09:45:30;;;;;;;8.20;2.58;;;;;;;0.80;58.27;99763.69;5043791;28;20031;-73
2024/01/20 09:47:56;;;;;;;4.55;1.65;;;;;;;0.90;55.98;99768.41;5055157;28;20040;-72
2024/01/20 09:50:22;;;;;;;4.32;1.63;;;;;;;0.85;55.46;99765.19;5044717;28;20028;-71
2024/01/20 09:53:16;;;;;;;5.45;1.40;;;;;;;0.81;54.45;99762.81;5058015;28;20386;-72
2024/01/20 09:55:45;;;;;;;4.40;1.50;;;;;;;0.81;51.12;99758.50;5016773;28;20103;-73
2024/01/20 09:58:20;;;;;;;4.28;1.50;;;;;;;0.86;49.47;99745.53;4994902;28;20083;-72
2024/01/20 10:00:51;;;;;;;4.22;1.30;;;;;;;1.03;48.76;99744.94;5000081;28;20041;-71
2024/01/20 10:03:20;;;;;;;2.70;1.00;;;;;;;0.85;46.43;99700.34;5001339;28;20068;-72
2024/01/20 10:05:53;;;;;;;3.92;1.20;;;;;;;1.30;46.97;99751.56;4976621;28;20049;-73
2024/01/20 10:08:36;;;;;;;6.20;1.65;;;;;;;1.32;46.74;99747.22;4983140;28;20326;-74
2024/01/20 10:11:37;;;;;;;5.82;1.70;;;;;;;1.56;46.07;99762.56;4992819;28;20036;-72
2024/01/20 10:14:05;;;;;;;4.63;1.52;;;;;;;1.53;46.22;99754.97;4994238;28;20053;-72
2024/01/20 10:16:39;;;;;;;3.28;1.30;;;;;;;1.65;47.32;99754.50;5002075;28;20052;-71
2024/01/20 10:19:10;;;;;;;3.85;1.60;;;;;;;1.76;48.16;99740.44;5009269;28;20048;-73
2024/01/20 10:21:44;;;;;;;3.90;1.55;;;;;;;1.88;52.71;99756.16;5000424;28;20029;-71
2024/01/20 10:24:10;;;;;;;7.68;1.80;;;;;;;1.52;51.28;99730.25;4993793;28;20279;-72
2024/01/20 10:26:44;;;;;;;4.00;1.60;;;;;;;1.54;51.82;99754.91;5000152;28;21061;-72
2024/01/20 10:32:03;;;;;;;5.47;2.40;;;;;;;1.61;50.51;99732.44;5004039;28;20023;-76
2024/01/20 10:34:36;;;;;;;5.18;2.20;;;;;;;1.77;50.13;99737.81;5039602;28;20543;-76
2024/01/20 10:40:30;;;;;;;4.35;1.40;;;;;;;1.89;48.53;99723.66;4971715;28;20061;-75
2024/01/20 10:44:01;;;;;;;5.15;1.92;;;;;;;2.04;49.67;99725.56;4972533;28;20786;-74
2024/01/20 10:46:29;;;;;;;6.50;2.60;;;;;;;2.23;50.14;99735.91;5061065;28;20053;-72
2024/01/20 10:51:47;;;;;;;6.13;1.67;;;;;;;1.79;48.27;99681.31;5051357;28;20044;-72
2024/01/20 10:54:15;;;;;;;4.38;1.65;;;;;;;2.16;48.38;99723.41;5057614;28;20040;-74
2024/01/20 10:56:43;;;;;;;5.15;1.80;;;;;;;2.19;48.34;99724.13;5062672;28;20027;-71
2024/01/20 10:59:12;;;;;;;3.90;1.60;;;;;;;2.35;48.98;99731.97;5038814;28;20150;-72
2024/01/20 11:01:41;;;;;;;4.03;1.20;;;;;;;2.43;48.32;99729.94;5058590;28;20039;-75
2024/01/20 11:05:06;;;;;;;;;;;;;;;;;;;;;
2024/01/20 11:07:38;;;;;;;2.55;0.90;;;;;;;2.92;36.77;99713.25;5059262;28;20435;-73
2024/01/20 11:10:05;;;;;;;3.10;1.08;;;;;;;2.87;44.00;99722.00;5032484;28;20505;-74
2024/01/20 11:12:33;;;;;;;3.38;1.20;;;;;;;2.94;41.57;99711.44;5061169;28;20047;-75
2024/01/20 12:43:33;;;;;;;2.35;0.80;;;;;;;5.35;27.51;99605.69;5113678;27;20070;-71
2024/01/20 12:45:59;;;;;;;1.38;0.43;;;;;;;5.39;25.10;99604.59;5102808;27;20573;-71
2024/01/20 12:48:27;;;;;;;3.53;0.60;;;;;;;5.39;26.54;99602.03;5108371;27;20042;-71
2024/01/20 12:54:08;;;;;;;2.28;0.60;;;;;;;5.52;28.00;99604.72;5093090;27;20190;-73
2024/01/20 12:56:35;;;;;;;1.33;0.45;;;;;;;5.46;26.43;99603.34;5087354;27;20632;-74
2024/01/20 12:59:00;;;;;;;2.22;0.80;;;;;;;5.49;26.32;99597.16;5091908;27;20031;-74
2024/01/20 13:01:28;;;;;;;3.00;0.80;;;;;;;5.61;26.26;99595.63;5079087;27;20123;-75
2024/01/20 13:03:58;;;;;;;1.85;0.70;;;;;;;5.71;22.89;99609.66;5077806;27;20134;-73
2024/01/20 13:06:24;;;;;;;1.83;0.60;;;;;;;5.77;24.61;99604.97;5076375;27;20019;-73
2024/01/20 13:08:52;;;;;;;2.28;0.70;;;;;;;5.75;29.22;99603.41;5077642;27;20700;-72
2024/01/20 13:11:17;;;;;;;2.20;0.70;;;;;;;5.65;28.59;99599.69;5092204;27;20177;-73
2024/01/20 13:13:47;;;;;;;2.80;0.60;;;;;;;5.63;32.11;99602.34;5078840;27;20040;-72
2024/01/20 13:16:15;;;;;;;;;;;;;;;5.56;34.14;99603.63;5096308;27;20058;-74
2024/01/20 13:18:40;;;;;;;3.13;0.65;;;;;;;5.45;30.65;99606.81;5090440;27;19923;-72
2024/01/20 13:21:05;;;;;;;1.73;0.60;;;;;;;5.41;32.51;99594.19;5092687;27;20041;-75
2024/01/20 13:23:33;;;;;;;1.48;0.50;;;;;;;5.54;31.69;99601.13;5076581;27;21262;-72